sensor_id;sensor_type;location;lat;lon;timestamp;temperature;humidity
33903;DHT22;20194;50.950;5.346;2023-04-01T00:00:16;10.00;81.10
33903;DHT22;20194;50.950;5.346;2023-04-01T00:02:42;10.00;81.70
33903;DHT22;20194;50.950;5.346;2023-04-01T00:05:09;10.00;81.30
33903;DHT22;20194;50.950;5.346;2023-04-01T00:07:39;10.00;81.60
33903;DHT22;20194;50.950;5.346;2023-04-01T00:10:06;10.00;81.70
33903;DHT22;20194;50.950;5.346;2023-04-01T00:12:32;10.00;81.50
33903;DHT22;20194;50.950;5.346;2023-04-01T00:14:58;10.00;81.40
33903;DHT22;20194;50.950;5.346;2023-04-01T00:17:25;10.00;81.40
33903;DHT22;20194;50.950;5.346;2023-04-01T00:19:51;10.00;81.10
33903;DHT22;20194;50.950;5.346;2023-04-01T00:22:17;10.00;80.90
33903;DHT22;20194;50.950;5.346;2023-04-01T00:24:43;10.00;80.90
33903;DHT22;20194;50.950;5.346;2023-04-01T00:27:08;10.00;81.10
33903;DHT22;20194;50.950;5.346;2023-04-01T00:29:34;10.00;81.10
33903;DHT22;20194;50.950;5.346;2023-04-01T00:32:00;10.00;80.90
33903;DHT22;20194;50.950;5.346;2023-04-01T00:34:26;10.00;80.70
33903;DHT22;20194;50.950;5.346;2023-04-01T00:36:52;10.00;80.80
33903;DHT22;20194;50.950;5.346;2023-04-01T00:39:19;10.00;80.70
33903;DHT22;20194;50.950;5.346;2023-04-01T00:41:46;10.10;80.90
33903;DHT22;20194;50.950;5.346;2023-04-01T00:44:22;10.10;80.60
33903;DHT22;20194;50.950;5.346;2023-04-01T00:46:49;10.00;81.10
33903;DHT22;20194;50.950;5.346;2023-04-01T00:49:17;10.00;81.00
33903;DHT22;20194;50.950;5.346;2023-04-01T00:51:45;10.00;81.00
33903;DHT22;20194;50.950;5.346;2023-04-01T00:54:15;10.00;81.10
33903;DHT22;20194;50.950;5.346;2023-04-01T00:56:55;10.00;81.40
33903;DHT22;20194;50.950;5.346;2023-04-01T00:59:53;10.00;81.50
33903;DHT22;20194;50.950;5.346;2023-04-01T01:02:19;9.90;81.50
33903;DHT22;20194;50.950;5.346;2023-04-01T01:04:46;10.00;81.60
33903;DHT22;20194;50.950;5.346;2023-04-01T01:07:36;10.00;81.80
33903;DHT22;20194;50.950;5.346;2023-04-01T01:10:23;10.00;82.00
33903;DHT22;20194;50.950;5.346;2023-04-01T01:15:41;10.00;81.60
33903;DHT22;20194;50.950;5.346;2023-04-01T01:26:51;10.10;80.80
33903;DHT22;20194;50.950;5.346;2023-04-01T01:32:10;10.00;81.10
33903;DHT22;20194;50.950;5.346;2023-04-01T01:37:10;10.00;81.40
33903;DHT22;20194;50.950;5.346;2023-04-01T01:39:39;10.00;81.30
33903;DHT22;20194;50.950;5.346;2023-04-01T01:42:10;10.00;81.80
33903;DHT22;20194;50.950;5.346;2023-04-01T01:44:37;10.00;82.00
33903;DHT22;20194;50.950;5.346;2023-04-01T01:47:03;9.90;82.20
33903;DHT22;20194;50.950;5.346;2023-04-01T01:49:32;9.90;82.50
33903;DHT22;20194;50.950;5.346;2023-04-01T01:51:59;10.00;82.30
33903;DHT22;20194;50.950;5.346;2023-04-01T01:54:25;10.00;82.00
33903;DHT22;20194;50.950;5.346;2023-04-01T01:57:06;10.10;81.60
33903;DHT22;20194;50.950;5.346;2023-04-01T01:59:35;10.00;82.10
33903;DHT22;20194;50.950;5.346;2023-04-01T02:02:04;10.00;82.20
33903;DHT22;20194;50.950;5.346;2023-04-01T02:04:40;10.00;82.30
33903;DHT22;20194;50.950;5.346;2023-04-01T02:07:12;10.00;82.40
33903;DHT22;20194;50.950;5.346;2023-04-01T02:09:39;10.00;82.50
33903;DHT22;20194;50.950;5.346;2023-04-01T02:12:10;9.90;82.50
33903;DHT22;20194;50.950;5.346;2023-04-01T02:17:30;9.90;82.70
33903;DHT22;20194;50.950;5.346;2023-04-01T02:19:59;9.90;82.80
33903;DHT22;20194;50.950;5.346;2023-04-01T02:22:29;10.00;83.00
33903;DHT22;20194;50.950;5.346;2023-04-01T02:25:08;9.90;82.80
33903;DHT22;20194;50.950;5.346;2023-04-01T02:27:34;10.00;83.10
33903;DHT22;20194;50.950;5.346;2023-04-01T02:30:00;9.90;82.80
33903;DHT22;20194;50.950;5.346;2023-04-01T02:32:27;10.00;82.90
33903;DHT22;20194;50.950;5.346;2023-04-01T02:34:55;9.90;83.00
33903;DHT22;20194;50.950;5.346;2023-04-01T02:37:21;10.00;83.30
33903;DHT22;20194;50.950;5.346;2023-04-01T02:39:47;10.00;83.20
33903;DHT22;20194;50.950;5.346;2023-04-01T02:42:13;10.00;82.80
33903;DHT22;20194;50.950;5.346;2023-04-01T02:44:39;10.10;82.70
33903;DHT22;20194;50.950;5.346;2023-04-01T02:47:05;10.00;82.30
33903;DHT22;20194;50.950;5.346;2023-04-01T02:49:30;10.00;82.30
33903;DHT22;20194;50.950;5.346;2023-04-01T02:51:56;10.00;82.30
33903;DHT22;20194;50.950;5.346;2023-04-01T02:54:22;10.00;82.50
33903;DHT22;20194;50.950;5.346;2023-04-01T02:56:48;10.10;82.50
33903;DHT22;20194;50.950;5.346;2023-04-01T02:59:14;10.10;82.10
33903;DHT22;20194;50.950;5.346;2023-04-01T03:01:40;10.10;82.10
33903;DHT22;20194;50.950;5.346;2023-04-01T03:04:05;10.10;81.70
33903;DHT22;20194;50.950;5.346;2023-04-01T03:06:31;10.10;81.70
33903;DHT22;20194;50.950;5.346;2023-04-01T03:08:57;10.10;81.60
33903;DHT22;20194;50.950;5.346;2023-04-01T03:11:23;10.10;80.80
33903;DHT22;20194;50.950;5.346;2023-04-01T03:13:48;10.10;80.70
33903;DHT22;20194;50.950;5.346;2023-04-01T03:16:14;10.10;81.00
33903;DHT22;20194;50.950;5.346;2023-04-01T03:18:40;10.10;81.00
33903;DHT22;20194;50.950;5.346;2023-04-01T03:21:20;10.10;80.60
33903;DHT22;20194;50.950;5.346;2023-04-01T03:23:46;10.10;81.20
33903;DHT22;20194;50.950;5.346;2023-04-01T03:26:12;10.10;81.20
33903;DHT22;20194;50.950;5.346;2023-04-01T03:28:38;10.00;80.60
33903;DHT22;20194;50.950;5.346;2023-04-01T03:31:04;10.00;81.00
33903;DHT22;20194;50.950;5.346;2023-04-01T03:33:31;10.00;80.60
33903;DHT22;20194;50.950;5.346;2023-04-01T03:35:57;9.90;81.00
33903;DHT22;20194;50.950;5.346;2023-04-01T03:38:23;10.00;81.30
33903;DHT22;20194;50.950;5.346;2023-04-01T03:40:49;9.90;80.60
33903;DHT22;20194;50.950;5.346;2023-04-01T03:43:15;9.90;80.90
33903;DHT22;20194;50.950;5.346;2023-04-01T03:45:46;9.90;80.70
33903;DHT22;20194;50.950;5.346;2023-04-01T03:48:13;10.00;81.00
33903;DHT22;20194;50.950;5.346;2023-04-01T03:50:39;9.90;80.60
33903;DHT22;20194;50.950;5.346;2023-04-01T03:53:05;10.00;80.70
33903;DHT22;20194;50.950;5.346;2023-04-01T03:55:31;9.90;80.70
33903;DHT22;20194;50.950;5.346;2023-04-01T03:57:57;10.00;81.00
33903;DHT22;20194;50.950;5.346;2023-04-01T04:00:22;9.90;80.90
33903;DHT22;20194;50.950;5.346;2023-04-01T04:02:48;9.90;81.20
33903;DHT22;20194;50.950;5.346;2023-04-01T04:05:14;9.90;81.50
33903;DHT22;20194;50.950;5.346;2023-04-01T04:07:40;9.90;81.70
33903;DHT22;20194;50.950;5.346;2023-04-01T04:10:06;9.90;81.50
33903;DHT22;20194;50.950;5.346;2023-04-01T04:12:32;9.90;81.50
33903;DHT22;20194;50.950;5.346;2023-04-01T04:14:58;9.90;81.50
33903;DHT22;20194;50.950;5.346;2023-04-01T04:17:24;9.80;81.80
33903;DHT22;20194;50.950;5.346;2023-04-01T04:19:50;9.90;82.10
33903;DHT22;20194;50.950;5.346;2023-04-01T04:22:16;9.90;82.00
33903;DHT22;20194;50.950;5.346;2023-04-01T04:24:41;9.80;81.70
33903;DHT22;20194;50.950;5.346;2023-04-01T04:27:07;9.90;81.90
33903;DHT22;20194;50.950;5.346;2023-04-01T04:29:33;9.90;81.80
33903;DHT22;20194;50.950;5.346;2023-04-01T04:31:59;9.80;82.00
33903;DHT22;20194;50.950;5.346;2023-04-01T04:34:24;9.80;82.20
33903;DHT22;20194;50.950;5.346;2023-04-01T04:36:50;9.80;82.50
33903;DHT22;20194;50.950;5.346;2023-04-01T04:39:16;9.80;82.60
33903;DHT22;20194;50.950;5.346;2023-04-01T04:41:41;9.80;82.90
33903;DHT22;20194;50.950;5.346;2023-04-01T04:44:08;9.90;83.20
33903;DHT22;20194;50.950;5.346;2023-04-01T04:46:33;9.80;83.20
33903;DHT22;20194;50.950;5.346;2023-04-01T04:48:59;9.80;82.90
33903;DHT22;20194;50.950;5.346;2023-04-01T04:51:25;9.80;83.10
33903;DHT22;20194;50.950;5.346;2023-04-01T04:53:51;9.70;83.80
33903;DHT22;20194;50.950;5.346;2023-04-01T04:56:18;9.70;83.50
33903;DHT22;20194;50.950;5.346;2023-04-01T04:58:45;9.70;84.00
33903;DHT22;20194;50.950;5.346;2023-04-01T05:01:13;9.80;83.90
33903;DHT22;20194;50.950;5.346;2023-04-01T05:03:40;9.80;83.80
33903;DHT22;20194;50.950;5.346;2023-04-01T05:06:07;9.80;83.30
33903;DHT22;20194;50.950;5.346;2023-04-01T05:08:33;9.80;83.50
33903;DHT22;20194;50.950;5.346;2023-04-01T05:11:00;9.80;83.50
33903;DHT22;20194;50.950;5.346;2023-04-01T05:13:27;9.80;83.50
33903;DHT22;20194;50.950;5.346;2023-04-01T05:15:52;9.80;83.50
33903;DHT22;20194;50.950;5.346;2023-04-01T05:18:18;9.70;83.20
33903;DHT22;20194;50.950;5.346;2023-04-01T05:20:52;9.80;83.50
33903;DHT22;20194;50.950;5.346;2023-04-01T05:23:19;9.70;83.70
33903;DHT22;20194;50.950;5.346;2023-04-01T05:25:47;9.70;83.90
33903;DHT22;20194;50.950;5.346;2023-04-01T05:28:13;9.70;83.70
33903;DHT22;20194;50.950;5.346;2023-04-01T05:30:40;9.70;83.40
33903;DHT22;20194;50.950;5.346;2023-04-01T05:33:07;9.70;83.70
33903;DHT22;20194;50.950;5.346;2023-04-01T05:35:33;9.70;84.00
33903;DHT22;20194;50.950;5.346;2023-04-01T05:37:59;9.80;83.80
33903;DHT22;20194;50.950;5.346;2023-04-01T05:40:25;9.80;83.20
33903;DHT22;20194;50.950;5.346;2023-04-01T05:42:51;9.80;83.20
33903;DHT22;20194;50.950;5.346;2023-04-01T05:45:16;9.80;83.20
33903;DHT22;20194;50.950;5.346;2023-04-01T05:47:42;9.80;83.20
33903;DHT22;20194;50.950;5.346;2023-04-01T05:50:09;9.80;83.00
33903;DHT22;20194;50.950;5.346;2023-04-01T05:52:36;9.80;83.20
33903;DHT22;20194;50.950;5.346;2023-04-01T05:55:02;9.80;83.20
33903;DHT22;20194;50.950;5.346;2023-04-01T05:57:28;9.70;83.10
33903;DHT22;20194;50.950;5.346;2023-04-01T05:59:54;9.80;83.20
33903;DHT22;20194;50.950;5.346;2023-04-01T06:02:19;9.90;83.10
33903;DHT22;20194;50.950;5.346;2023-04-01T06:04:46;9.90;82.40
33903;DHT22;20194;50.950;5.346;2023-04-01T06:07:16;9.80;82.80
33903;DHT22;20194;50.950;5.346;2023-04-01T06:09:43;9.80;83.20
33903;DHT22;20194;50.950;5.346;2023-04-01T06:25:59;9.80;84.10
33903;DHT22;20194;50.950;5.346;2023-04-01T06:34:40;9.80;84.40
33903;DHT22;20194;50.950;5.346;2023-04-01T06:45:16;9.80;83.90
33903;DHT22;20194;50.950;5.346;2023-04-01T06:50:57;9.90;84.00
33903;DHT22;20194;50.950;5.346;2023-04-01T06:56:11;9.90;83.80
33903;DHT22;20194;50.950;5.346;2023-04-01T06:58:46;9.80;83.60
33903;DHT22;20194;50.950;5.346;2023-04-01T07:01:21;9.70;83.40
33903;DHT22;20194;50.950;5.346;2023-04-01T07:03:55;9.80;83.50
33903;DHT22;20194;50.950;5.346;2023-04-01T07:08:55;9.80;83.40
33903;DHT22;20194;50.950;5.346;2023-04-01T07:11:33;9.80;83.40
33903;DHT22;20194;50.950;5.346;2023-04-01T07:16:48;9.90;82.90
33903;DHT22;20194;50.950;5.346;2023-04-01T07:21:52;9.80;83.40
33903;DHT22;20194;50.950;5.346;2023-04-01T07:24:40;9.80;83.80
33903;DHT22;20194;50.950;5.346;2023-04-01T07:27:11;9.80;84.10
33903;DHT22;20194;50.950;5.346;2023-04-01T07:29:38;9.90;84.20
33903;DHT22;20194;50.950;5.346;2023-04-01T07:33:01;9.90;83.80
33903;DHT22;20194;50.950;5.346;2023-04-01T07:35:34;9.80;84.10
33903;DHT22;20194;50.950;5.346;2023-04-01T07:38:26;9.80;84.30
33903;DHT22;20194;50.950;5.346;2023-04-01T07:49:27;9.90;83.20
33903;DHT22;20194;50.950;5.346;2023-04-01T07:55:09;9.90;83.30
33903;DHT22;20194;50.950;5.346;2023-04-01T08:00:29;9.90;83.40
33903;DHT22;20194;50.950;5.346;2023-04-01T08:06:06;9.80;83.10
33903;DHT22;20194;50.950;5.346;2023-04-01T08:08:45;9.80;83.20
33903;DHT22;20194;50.950;5.346;2023-04-01T08:11:14;9.90;83.70
33903;DHT22;20194;50.950;5.346;2023-04-01T08:14:09;9.80;83.20
33903;DHT22;20194;50.950;5.346;2023-04-01T08:16:56;9.90;83.40
33903;DHT22;20194;50.950;5.346;2023-04-01T08:22:45;10.00;82.70
33903;DHT22;20194;50.950;5.346;2023-04-01T08:25:21;10.00;82.20
33903;DHT22;20194;50.950;5.346;2023-04-01T08:27:56;10.00;81.80
33903;DHT22;20194;50.950;5.346;2023-04-01T08:30:28;9.90;81.90
33903;DHT22;20194;50.950;5.346;2023-04-01T08:33:09;10.00;81.80
33903;DHT22;20194;50.950;5.346;2023-04-01T08:46:28;10.00;82.50
33903;DHT22;20194;50.950;5.346;2023-04-01T08:49:03;10.00;82.50
33903;DHT22;20194;50.950;5.346;2023-04-01T08:51:52;10.10;82.90
33903;DHT22;20194;50.950;5.346;2023-04-01T09:03:58;10.30;83.00
33903;DHT22;20194;50.950;5.346;2023-04-01T09:17:12;10.10;82.90
33903;DHT22;20194;50.950;5.346;2023-04-01T09:23:04;10.20;82.20
33903;DHT22;20194;50.950;5.346;2023-04-01T09:28:28;10.40;83.20
33903;DHT22;20194;50.950;5.346;2023-04-01T09:40:21;10.50;81.80
33903;DHT22;20194;50.950;5.346;2023-04-01T09:46:23;10.60;81.50
33903;DHT22;20194;50.950;5.346;2023-04-01T09:49:13;10.60;81.70
33903;DHT22;20194;50.950;5.346;2023-04-01T10:08:56;10.70;81.60
33903;DHT22;20194;50.950;5.346;2023-04-01T10:20:17;10.80;80.60
33903;DHT22;20194;50.950;5.346;2023-04-01T10:22:50;10.70;80.50
33903;DHT22;20194;50.950;5.346;2023-04-01T10:50:49;10.90;80.00
33903;DHT22;20194;50.950;5.346;2023-04-01T10:53:58;10.80;78.30
33903;DHT22;20194;50.950;5.346;2023-04-01T11:24:45;10.80;80.30
33903;DHT22;20194;50.950;5.346;2023-04-01T11:33:03;10.90;80.10
33903;DHT22;20194;50.950;5.346;2023-04-01T11:35:52;10.90;80.50
33903;DHT22;20194;50.950;5.346;2023-04-01T11:43:57;10.80;81.60
33903;DHT22;20194;50.950;5.346;2023-04-01T11:49:33;11.10;81.80
33903;DHT22;20194;50.950;5.346;2023-04-01T11:54:54;11.10;79.60
33903;DHT22;20194;50.950;5.346;2023-04-01T11:57:43;11.10;80.20
33903;DHT22;20194;50.950;5.346;2023-04-01T12:06:42;11.00;79.60
33903;DHT22;20194;50.950;5.346;2023-04-01T12:18:32;11.00;78.80
33903;DHT22;20194;50.950;5.346;2023-04-01T12:20:46;11.10;78.90
33903;DHT22;20194;50.950;5.346;2023-04-01T12:29:04;11.00;77.60
33903;DHT22;20194;50.950;5.346;2023-04-01T12:45:35;10.80;75.70
33903;DHT22;20194;50.950;5.346;2023-04-01T12:51:11;10.80;76.00
33903;DHT22;20194;50.950;5.346;2023-04-01T13:05:11;10.70;75.40
33903;DHT22;20194;50.950;5.346;2023-04-01T13:11:18;10.70;75.80
33903;DHT22;20194;50.950;5.346;2023-04-01T13:16:27;10.90;76.40
33903;DHT22;20194;50.950;5.346;2023-04-01T13:27:18;11.20;75.40
33903;DHT22;20194;50.950;5.346;2023-04-01T13:33:11;11.10;75.80
33903;DHT22;20194;50.950;5.346;2023-04-01T13:35:44;11.10;75.40
33903;DHT22;20194;50.950;5.346;2023-04-01T13:38:18;11.00;76.20
33903;DHT22;20194;50.950;5.346;2023-04-01T13:44:02;11.00;76.20
33903;DHT22;20194;50.950;5.346;2023-04-01T13:47:35;10.90;75.70
33903;DHT22;20194;50.950;5.346;2023-04-01T13:57:41;10.90;77.50
33903;DHT22;20194;50.950;5.346;2023-04-01T14:20:10;11.20;77.60
33903;DHT22;20194;50.950;5.346;2023-04-01T14:23:04;11.20;76.70
33903;DHT22;20194;50.950;5.346;2023-04-01T14:28:42;11.20;77.00
33903;DHT22;20194;50.950;5.346;2023-04-01T14:42:31;11.10;77.20
33903;DHT22;20194;50.950;5.346;2023-04-01T14:48:05;11.00;78.40
33903;DHT22;20194;50.950;5.346;2023-04-01T14:50:45;11.00;77.80
33903;DHT22;20194;50.950;5.346;2023-04-01T14:56:39;11.10;76.80
33903;DHT22;20194;50.950;5.346;2023-04-01T14:59:10;11.20;75.80
33903;DHT22;20194;50.950;5.346;2023-04-01T15:21:24;11.00;77.20
33903;DHT22;20194;50.950;5.346;2023-04-01T15:30:16;11.00;78.20
33903;DHT22;20194;50.950;5.346;2023-04-01T15:40:49;10.90;76.00
33903;DHT22;20194;50.950;5.346;2023-04-01T15:51:53;11.00;74.50
33903;DHT22;20194;50.950;5.346;2023-04-01T15:57:33;11.10;73.90
33903;DHT22;20194;50.950;5.346;2023-04-01T16:07:55;11.20;73.70
33903;DHT22;20194;50.950;5.346;2023-04-01T16:18:54;11.10;72.60
33903;DHT22;20194;50.950;5.346;2023-04-01T16:21:57;11.10;72.30
33903;DHT22;20194;50.950;5.346;2023-04-01T16:27:24;11.10;70.80
33903;DHT22;20194;50.950;5.346;2023-04-01T16:32:36;10.80;71.40
33903;DHT22;20194;50.950;5.346;2023-04-01T16:38:25;10.90;70.50
33903;DHT22;20194;50.950;5.346;2023-04-01T16:41:00;10.80;70.10
33903;DHT22;20194;50.950;5.346;2023-04-01T16:43:56;10.90;69.40
33903;DHT22;20194;50.950;5.346;2023-04-01T16:46:41;10.90;70.00
33903;DHT22;20194;50.950;5.346;2023-04-01T16:51:58;10.90;70.70
33903;DHT22;20194;50.950;5.346;2023-04-01T16:54:36;10.70;72.80
33903;DHT22;20194;50.950;5.346;2023-04-01T16:59:46;10.50;72.60
33903;DHT22;20194;50.950;5.346;2023-04-01T17:02:17;10.50;74.30
33903;DHT22;20194;50.950;5.346;2023-04-01T17:04:48;10.60;75.00
33903;DHT22;20194;50.950;5.346;2023-04-01T17:07:38;10.60;74.20
33903;DHT22;20194;50.950;5.346;2023-04-01T17:13:17;10.50;72.50
33903;DHT22;20194;50.950;5.346;2023-04-01T17:22:04;10.30;74.60
33903;DHT22;20194;50.950;5.346;2023-04-01T17:27:50;10.10;76.10
33903;DHT22;20194;50.950;5.346;2023-04-01T17:30:41;10.10;76.20
33903;DHT22;20194;50.950;5.346;2023-04-01T17:38:45;10.10;77.10
33903;DHT22;20194;50.950;5.346;2023-04-01T17:44:01;10.00;77.20
33903;DHT22;20194;50.950;5.346;2023-04-01T17:52:21;10.00;78.70
33903;DHT22;20194;50.950;5.346;2023-04-01T17:57:45;9.90;78.30
33903;DHT22;20194;50.950;5.346;2023-04-01T18:05:30;10.00;79.20
33903;DHT22;20194;50.950;5.346;2023-04-01T18:24:45;10.10;78.10
33903;DHT22;20194;50.950;5.346;2023-04-01T18:27:38;10.00;78.90
33903;DHT22;20194;50.950;5.346;2023-04-01T18:30:15;10.00;79.00
33903;DHT22;20194;50.950;5.346;2023-04-01T18:32:44;10.00;79.60
33903;DHT22;20194;50.950;5.346;2023-04-01T18:35:28;10.00;79.30
33903;DHT22;20194;50.950;5.346;2023-04-01T18:38:11;9.80;79.60
33903;DHT22;20194;50.950;5.346;2023-04-01T18:40:53;9.90;80.70
33903;DHT22;20194;50.950;5.346;2023-04-01T18:46:16;10.00;80.40
33903;DHT22;20194;50.950;5.346;2023-04-01T18:48:57;10.00;80.30
33903;DHT22;20194;50.950;5.346;2023-04-01T18:51:46;10.00;79.80
33903;DHT22;20194;50.950;5.346;2023-04-01T18:54:40;10.10;80.00
33903;DHT22;20194;50.950;5.346;2023-04-01T18:57:18;10.10;78.90
33903;DHT22;20194;50.950;5.346;2023-04-01T18:59:56;10.20;79.40
33903;DHT22;20194;50.950;5.346;2023-04-01T19:02:36;10.20;79.60
33903;DHT22;20194;50.950;5.346;2023-04-01T19:05:11;10.10;79.20
33903;DHT22;20194;50.950;5.346;2023-04-01T19:07:47;10.10;79.90
33903;DHT22;20194;50.950;5.346;2023-04-01T19:26:45;9.90;81.20
33903;DHT22;20194;50.950;5.346;2023-04-01T19:38:14;10.10;81.10
33903;DHT22;20194;50.950;5.346;2023-04-01T19:40:57;10.10;81.20
33903;DHT22;20194;50.950;5.346;2023-04-01T19:43:47;10.10;81.30
33903;DHT22;20194;50.950;5.346;2023-04-01T19:46:37;10.00;81.30
33903;DHT22;20194;50.950;5.346;2023-04-01T19:49:16;10.00;81.60
33903;DHT22;20194;50.950;5.346;2023-04-01T19:51:50;10.10;81.60
33903;DHT22;20194;50.950;5.346;2023-04-01T20:02:43;10.40;80.20
33903;DHT22;20194;50.950;5.346;2023-04-01T20:08:35;10.40;79.00
33903;DHT22;20194;50.950;5.346;2023-04-01T20:11:55;10.30;79.70
33903;DHT22;20194;50.950;5.346;2023-04-01T20:19:29;10.30;80.70
33903;DHT22;20194;50.950;5.346;2023-04-01T20:21:59;10.40;80.40
33903;DHT22;20194;50.950;5.346;2023-04-01T20:24:45;10.30;80.20
33903;DHT22;20194;50.950;5.346;2023-04-01T20:27:20;10.30;80.60
33903;DHT22;20194;50.950;5.346;2023-04-01T20:36:05;10.30;80.50
33903;DHT22;20194;50.950;5.346;2023-04-01T20:44:12;10.30;81.40
33903;DHT22;20194;50.950;5.346;2023-04-01T21:00:27;10.50;81.10
33903;DHT22;20194;50.950;5.346;2023-04-01T21:08:40;10.70;79.80
33903;DHT22;20194;50.950;5.346;2023-04-01T21:11:40;10.80;79.60
33903;DHT22;20194;50.950;5.346;2023-04-01T21:17:52;10.80;78.50
33903;DHT22;20194;50.950;5.346;2023-04-01T21:26:39;10.50;80.30
33903;DHT22;20194;50.950;5.346;2023-04-01T21:29:27;10.60;79.90
33903;DHT22;20194;50.950;5.346;2023-04-01T21:46:51;10.50;76.20
33903;DHT22;20194;50.950;5.346;2023-04-01T22:00:14;10.50;75.80
33903;DHT22;20194;50.950;5.346;2023-04-01T22:05:36;10.40;77.60
33903;DHT22;20194;50.950;5.346;2023-04-01T22:13:54;10.30;77.10
33903;DHT22;20194;50.950;5.346;2023-04-01T22:22:22;10.30;76.70
33903;DHT22;20194;50.950;5.346;2023-04-01T22:25:07;10.40;75.70
33903;DHT22;20194;50.950;5.346;2023-04-01T22:28:27;10.50;75.70
33903;DHT22;20194;50.950;5.346;2023-04-01T22:30:39;10.40;74.80
33903;DHT22;20194;50.950;5.346;2023-04-01T22:35:39;10.50;75.00
33903;DHT22;20194;50.950;5.346;2023-04-01T22:43:37;10.20;76.40
33903;DHT22;20194;50.950;5.346;2023-04-01T22:51:53;10.00;77.90
33903;DHT22;20194;50.950;5.346;2023-04-01T22:57:05;9.90;76.50
33903;DHT22;20194;50.950;5.346;2023-04-01T23:03:00;9.90;76.20
33903;DHT22;20194;50.950;5.346;2023-04-01T23:05:27;9.90;75.40
33903;DHT22;20194;50.950;5.346;2023-04-01T23:08:02;10.00;75.50
33903;DHT22;20194;50.950;5.346;2023-04-01T23:10:42;10.00;75.40
33903;DHT22;20194;50.950;5.346;2023-04-01T23:13:16;10.00;75.10
33903;DHT22;20194;50.950;5.346;2023-04-01T23:15:44;10.20;75.30
33903;DHT22;20194;50.950;5.346;2023-04-01T23:28:54;10.20;72.60
33903;DHT22;20194;50.950;5.346;2023-04-01T23:33:57;10.10;71.40
33903;DHT22;20194;50.950;5.346;2023-04-01T23:36:24;10.00;71.40
33903;DHT22;20194;50.950;5.346;2023-04-01T23:38:51;9.90;71.60
33903;DHT22;20194;50.950;5.346;2023-04-01T23:41:22;9.80;72.40
33903;DHT22;20194;50.950;5.346;2023-04-01T23:44:04;9.80;74.00
33903;DHT22;20194;50.950;5.346;2023-04-01T23:46:33;9.80;74.00
33903;DHT22;20194;50.950;5.346;2023-04-01T23:49:01;9.80;74.00
33903;DHT22;20194;50.950;5.346;2023-04-01T23:51:39;9.80;74.50
33903;DHT22;20194;50.950;5.346;2023-04-01T23:54:18;9.80;75.40
33903;DHT22;20194;50.950;5.346;2023-04-01T23:56:48;9.70;75.30
33903;DHT22;20194;50.950;5.346;2023-04-01T23:59:17;9.70;75.90
